Time;durP1;ratioP1;P1;durP2;ratioP2;P2;SDS_P1;SDS_P2;PMS_P1;PMS_P2;Temp;Humidity;BMP_temperature;BMP_pressure;BME280_temperature;BME280_humidity;BME280_pressure;Samples;Min_cycle;Max_cycle;Signal;HPM_P1;HPM_P2
2022/10/24 00:01:23;;;;;;;9.20;2.40;;;16.50;99.90;;;;;;5055146;28;20036;-84
2022/10/24 00:03:49;;;;;;;8.20;2.50;;;16.40;99.90;;;;;;5055776;28;20040;-84
2022/10/24 00:06:15;;;;;;;8.23;2.60;;;16.40;99.90;;;;;;5072158;28;20513;-84
2022/10/24 00:08:42;;;;;;;6.38;1.70;;;16.40;99.90;;;;;;5055975;28;20119;-84
2022/10/24 00:11:14;;;;;;;5.85;1.60;;;16.40;99.90;;;;;;5055655;28;20039;-83
2022/10/24 00:13:40;;;;;;;7.07;2.38;;;16.40;99.90;;;;;;5055119;28;20498;-84
2022/10/24 00:16:07;;;;;;;8.65;2.25;;;16.30;99.90;;;;;;5055877;28;20113;-84
2022/10/24 00:18:32;;;;;;;7.70;2.45;;;16.40;99.90;;;;;;5055327;28;20040;-84
2022/10/24 00:20:58;;;;;;;6.43;2.00;;;16.30;99.90;;;;;;5055538;28;20562;-84
2022/10/24 00:23:24;;;;;;;7.78;2.13;;;16.30;99.90;;;;;;5071715;28;20040;-84
2022/10/24 00:25:49;;;;;;;8.57;1.90;;;16.40;99.90;;;;;;5055233;28;20040;-84
2022/10/24 00:28:15;;;;;;;5.47;1.77;;;16.30;99.90;;;;;;5072341;28;20045;-84
2022/10/24 00:30:40;;;;;;;8.85;2.20;;;16.30;99.90;;;;;;5071476;28;20090;-84
2022/10/24 00:33:06;;;;;;;8.57;2.22;;;16.30;99.90;;;;;;5055312;28;20648;-84
2022/10/24 00:35:32;;;;;;;9.15;2.53;;;16.30;99.90;;;;;;5072136;28;20033;-84
2022/10/24 00:37:57;;;;;;;6.25;2.15;;;16.30;99.90;;;;;;5054825;28;20683;-84
2022/10/24 00:40:23;;;;;;;10.23;2.72;;;16.20;99.90;;;;;;5054136;28;20040;-84
2022/10/24 00:42:48;;;;;;;8.77;2.13;;;16.20;99.90;;;;;;5071650;28;20055;-84
2022/10/24 00:45:47;;;;;;;10.50;2.60;;;16.20;99.90;;;;;;5055230;28;20048;-84
2022/10/24 00:48:21;;;;;;;7.97;2.40;;;16.20;99.90;;;;;;5071710;28;20470;-84
2022/10/24 00:50:51;;;;;;;9.15;2.60;;;16.20;99.90;;;;;;5073347;28;20036;-84
2022/10/24 00:53:18;;;;;;;9.50;2.63;;;16.20;99.90;;;;;;5071309;28;20032;-84
2022/10/24 00:55:47;;;;;;;8.40;2.28;;;16.20;99.90;;;;;;5073102;28;20062;-84
2022/10/24 00:58:13;;;;;;;8.63;2.63;;;16.20;99.90;;;;;;5071104;28;20532;-84
2022/10/24 01:00:39;;;;;;;9.73;2.70;;;16.20;99.90;;;;;;5055146;28;20044;-84
2022/10/24 01:03:05;;;;;;;7.50;2.42;;;16.20;99.90;;;;;;5054507;28;20391;-84
2022/10/24 01:05:47;;;;;;;9.32;2.70;;;16.20;99.90;;;;;;5071007;28;20394;-84
2022/10/24 01:08:22;;;;;;;9.32;2.20;;;16.30;99.90;;;;;;5070809;28;20558;-84
2022/10/24 01:11:02;;;;;;;9.60;2.72;;;16.30;99.90;;;;;;5071063;28;20040;-84
2022/10/24 01:13:53;;;;;;;10.18;2.58;;;16.30;99.90;;;;;;5071552;28;20085;-84
2022/10/24 01:16:37;;;;;;;12.20;3.28;;;16.30;99.90;;;;;;5070944;28;20462;-84
2022/10/24 01:19:25;;;;;;;10.75;3.08;;;16.40;99.90;;;;;;5055200;28;20129;-84
2022/10/24 01:22:09;;;;;;;9.75;1.95;;;16.40;99.90;;;;;;5053782;28;20040;-84
2022/10/24 01:25:05;;;;;;;11.75;3.20;;;16.30;99.90;;;;;;5053981;28;20049;-84
2022/10/24 01:28:00;;;;;;;9.98;3.30;;;16.40;99.90;;;;;;5041021;28;20052;-84
2022/10/24 01:30:29;;;;;;;10.13;2.88;;;16.40;99.90;;;;;;5071453;28;20105;-84
2022/10/24 01:33:17;;;;;;;9.07;2.85;;;16.40;99.90;;;;;;5054056;28;20123;-84
2022/10/24 01:35:53;;;;;;;8.27;2.22;;;16.40;99.90;;;;;;5047042;28;20048;-84
2022/10/24 01:38:37;;;;;;;8.93;2.33;;;16.30;99.90;;;;;;5054486;28;20040;-84
2022/10/24 01:41:21;;;;;;;10.80;3.08;;;16.30;99.90;;;;;;5069983;28;20036;-84
2022/10/24 01:44:14;;;;;;;10.65;3.47;;;16.30;99.90;;;;;;5070835;28;20045;-84
2022/10/24 01:46:50;;;;;;;11.45;3.20;;;16.30;99.90;;;;;;5053711;28;20498;-84
2022/10/24 01:49:19;;;;;;;10.10;3.33;;;16.30;99.90;;;;;;5053279;28;20036;-84
2022/10/24 01:51:49;;;;;;;12.75;3.60;;;16.30;99.90;;;;;;5069813;28;20080;-84
2022/10/24 01:54:15;;;;;;;8.45;2.97;;;16.30;99.90;;;;;;5052843;28;20044;-84
2022/10/24 01:56:41;;;;;;;9.73;3.20;;;16.30;99.90;;;;;;5070718;28;20075;-84
2022/10/24 01:59:28;;;;;;;11.65;3.40;;;16.30;99.90;;;;;;5053770;28;20067;-84
2022/10/24 02:02:26;;;;;;;12.98;3.38;;;16.30;99.90;;;;;;5041997;28;20052;-84
2022/10/24 02:05:03;;;;;;;10.30;3.33;;;16.30;99.90;;;;;;5070313;28;20048;-84
2022/10/24 02:07:30;;;;;;;11.45;2.92;;;16.20;99.90;;;;;;5052902;28;20708;-84
2022/10/24 02:10:01;;;;;;;10.05;3.20;;;16.10;99.90;;;;;;5053765;28;20383;-84
2022/10/24 02:12:28;;;;;;;11.50;3.50;;;16.20;99.90;;;;;;5070182;28;20028;-84
2022/10/24 02:15:01;;;;;;;11.18;3.05;;;16.20;99.90;;;;;;5069233;28;20120;-84
2022/10/24 02:17:26;;;;;;;8.10;2.53;;;16.20;99.90;;;;;;5070460;28;20517;-84
2022/10/24 02:19:52;;;;;;;11.63;3.20;;;16.10;99.90;;;;;;5053248;28;20115;-84
2022/10/24 02:22:40;;;;;;;9.82;2.97;;;16.10;99.90;;;;;;5053229;28;20028;-84
2022/10/24 02:25:10;;;;;;;11.75;3.25;;;16.10;99.90;;;;;;5070290;28;20059;-84
2022/10/24 02:27:51;;;;;;;9.88;2.72;;;16.10;99.90;;;;;;5052636;28;20028;-84
2022/10/24 02:30:20;;;;;;;11.45;3.50;;;16.00;99.90;;;;;;5070335;28;20129;-84
2022/10/24 02:32:51;;;;;;;9.77;3.00;;;16.00;99.90;;;;;;5052293;28;20037;-84
2022/10/24 02:35:21;;;;;;;10.00;3.13;;;16.10;99.90;;;;;;5053289;28;20131;-84
2022/10/24 02:37:53;;;;;;;11.48;3.33;;;16.00;99.90;;;;;;5069600;28;20505;-84
2022/10/24 02:40:20;;;;;;;;;;;16.00;99.90;;;;;;5070031;28;20048;-84
2022/10/24 02:42:50;;;;;;;10.40;2.90;;;15.90;99.90;;;;;;5069467;28;19916;-84
2022/10/24 02:45:17;;;;;;;10.55;3.00;;;15.90;99.90;;;;;;5052766;28;20036;-84
2022/10/24 02:47:44;;;;;;;6.43;1.95;;;16.00;99.90;;;;;;5070097;28;20047;-84
2022/10/24 02:50:11;;;;;;;10.70;3.13;;;15.90;99.90;;;;;;5069497;28;20044;-84
2022/10/24 02:52:41;;;;;;;10.30;2.72;;;15.90;99.90;;;;;;5069717;28;20049;-84
2022/10/24 02:55:07;;;;;;;10.50;2.90;;;15.90;99.90;;;;;;5069992;28;20044;-84
2022/10/24 02:57:32;;;;;;;10.75;3.63;;;16.00;99.90;;;;;;5068988;28;20041;-84
2022/10/24 02:59:58;;;;;;;9.85;3.10;;;16.00;99.90;;;;;;5070209;28;20470;-84
2022/10/24 03:02:23;;;;;;;7.55;2.05;;;16.00;99.90;;;;;;5053216;28;20037;-84
2022/10/24 03:04:49;;;;;;;11.10;3.17;;;15.90;99.90;;;;;;5056977;28;20128;-84
2022/10/24 03:07:15;;;;;;;9.25;2.92;;;15.90;99.90;;;;;;5056805;28;20405;-84
2022/10/24 03:09:40;;;;;;;11.00;3.38;;;16.00;99.90;;;;;;5073527;28;20040;-84
2022/10/24 03:12:06;;;;;;;8.90;2.28;;;16.00;99.90;;;;;;5056876;28;20037;-84
2022/10/24 03:14:32;;;;;;;7.53;2.60;;;16.00;99.90;;;;;;5056508;28;20047;-84
2022/10/24 03:16:57;;;;;;;8.88;3.08;;;15.90;99.90;;;;;;5056847;28;20051;-84
2022/10/24 03:19:23;;;;;;;10.80;3.40;;;16.00;99.90;;;;;;5057054;28;20036;-84
2022/10/24 03:21:48;;;;;;;9.13;3.10;;;16.00;99.90;;;;;;5072782;28;20052;-84
2022/10/24 03:24:14;;;;;;;11.57;3.17;;;16.00;99.90;;;;;;5056885;28;20036;-84
2022/10/24 03:26:39;;;;;;;9.35;2.92;;;16.00;99.90;;;;;;5072613;28;20094;-84
2022/10/24 03:29:05;;;;;;;11.30;3.08;;;16.00;99.90;;;;;;5073400;28;20071;-84
2022/10/24 03:31:30;;;;;;;9.77;2.85;;;16.00;99.90;;;;;;5072278;28;20043;-84
2022/10/24 03:33:56;;;;;;;10.77;2.97;;;16.10;99.90;;;;;;5056722;28;20082;-84
2022/10/24 03:36:22;;;;;;;8.15;1.92;;;16.10;99.90;;;;;;5056061;28;20036;-84
2022/10/24 03:38:48;;;;;;;9.05;2.80;;;16.10;99.90;;;;;;5072940;28;20044;-84
2022/10/24 03:41:13;;;;;;;9.02;2.63;;;16.10;99.90;;;;;;5073192;28;20037;-84
2022/10/24 03:43:39;;;;;;;9.18;2.88;;;16.20;99.90;;;;;;5056152;28;20502;-84
2022/10/24 03:46:04;;;;;;;8.65;2.70;;;16.30;99.90;;;;;;5072909;28;20573;-84
2022/10/24 03:48:30;;;;;;;9.52;2.65;;;16.30;99.90;;;;;;5073035;28;20119;-84
2022/10/24 03:50:56;;;;;;;9.23;2.90;;;16.40;99.90;;;;;;5073378;28;20032;-84
2022/10/24 03:53:21;;;;;;;6.85;1.77;;;16.40;99.90;;;;;;5072931;28;20131;-84
2022/10/24 03:55:47;;;;;;;7.75;2.53;;;16.40;99.90;;;;;;5072568;28;20402;-84
2022/10/24 03:58:12;;;;;;;8.50;3.08;;;16.50;99.90;;;;;;5072604;28;20040;-84
2022/10/24 04:00:39;;;;;;;9.45;3.15;;;16.50;99.90;;;;;;5072802;28;20056;-84
2022/10/24 04:03:08;;;;;;;10.68;2.65;;;16.50;99.90;;;;;;5072226;28;20041;-84
2022/10/24 04:05:35;;;;;;;5.55;1.95;;;16.50;99.90;;;;;;5055710;28;20051;-84
2022/10/24 04:08:01;;;;;;;11.88;2.65;;;16.40;99.90;;;;;;5072625;28;20170;-84
2022/10/24 04:10:26;;;;;;;11.80;2.70;;;16.50;99.90;;;;;;5072395;28;20036;-84
2022/10/24 04:12:52;;;;;;;9.48;2.25;;;16.50;99.90;;;;;;5072266;28;20520;-84
2022/10/24 04:15:18;;;;;;;8.98;2.38;;;16.50;99.90;;;;;;5071950;28;20504;-84
2022/10/24 04:17:44;;;;;;;10.18;2.53;;;16.50;99.90;;;;;;5072635;28;20043;-84
2022/10/24 04:20:10;;;;;;;6.35;2.10;;;16.50;99.90;;;;;;5072182;28;20127;-84
2022/10/24 04:22:35;;;;;;;9.10;2.40;;;16.40;99.90;;;;;;5072114;28;20044;-84
2022/10/24 04:25:01;;;;;;;10.20;2.58;;;16.50;99.90;;;;;;5072512;28;20482;-84
2022/10/24 04:27:26;;;;;;;10.52;2.80;;;16.50;99.90;;;;;;5071525;28;20506;-84
2022/10/24 04:29:52;;;;;;;10.27;2.42;;;16.50;99.90;;;;;;5072358;28;20563;-84
2022/10/24 04:32:18;;;;;;;9.63;2.13;;;16.40;99.90;;;;;;5071529;28;20131;-84
2022/10/24 04:34:43;;;;;;;6.13;1.40;;;16.40;99.90;;;;;;5072145;28;20093;-84
2022/10/24 04:37:09;;;;;;;8.85;2.47;;;16.40;99.90;;;;;;5055837;28;20037;-84
2022/10/24 04:39:34;;;;;;;8.95;2.00;;;16.30;99.90;;;;;;5054875;28;20070;-84
2022/10/24 04:42:00;;;;;;;9.18;2.38;;;16.30;99.90;;;;;;5055299;28;20456;-84
2022/10/24 04:44:25;;;;;;;10.70;2.20;;;16.30;99.90;;;;;;5054644;28;20040;-84
2022/10/24 04:46:51;;;;;;;10.23;1.77;;;16.30;99.90;;;;;;5072239;28;20036;-84
2022/10/24 04:49:17;;;;;;;10.45;2.72;;;16.30;99.90;;;;;;5054525;28;20056;-84
2022/10/24 04:51:43;;;;;;;9.50;2.33;;;16.20;99.90;;;;;;5071486;28;20036;-84
2022/10/24 04:54:09;;;;;;;12.27;2.60;;;16.20;99.90;;;;;;5055295;28;20741;-84
2022/10/24 04:56:34;;;;;;;8.68;2.30;;;16.20;99.90;;;;;;5071132;28;20041;-84
2022/10/24 04:59:00;;;;;;;8.77;2.40;;;16.20;99.90;;;;;;5072012;28;20123;-84
2022/10/24 05:01:26;;;;;;;6.88;1.55;;;16.10;99.90;;;;;;5054118;28;20044;-84
2022/10/24 05:03:51;;;;;;;5.75;1.65;;;16.10;99.90;;;;;;5071296;28;20075;-84
2022/10/24 05:06:17;;;;;;;9.23;2.40;;;16.00;99.90;;;;;;5071928;28;20057;-84
2022/10/24 05:08:42;;;;;;;10.73;2.10;;;16.10;99.90;;;;;;5071287;28;20040;-84
2022/10/24 05:11:11;;;;;;;10.07;2.38;;;16.10;99.90;;;;;;5070921;28;20036;-84
2022/10/24 05:13:38;;;;;;;8.30;2.10;;;16.10;99.90;;;;;;5071457;28;20094;-84
2022/10/24 05:16:04;;;;;;;8.80;1.90;;;16.00;99.90;;;;;;5070440;28;20040;-84
2022/10/24 05:18:30;;;;;;;10.48;2.10;;;16.00;99.90;;;;;;5054670;28;20079;-84
2022/10/24 05:20:57;;;;;;;8.45;2.15;;;16.00;99.90;;;;;;5070337;28;20076;-84
2022/10/24 05:23:23;;;;;;;9.95;2.22;;;16.00;99.90;;;;;;5054920;28;20481;-84
2022/10/24 05:25:48;;;;;;;10.65;2.28;;;16.00;99.90;;;;;;5069981;28;20140;-84
2022/10/24 05:28:14;;;;;;;8.25;2.17;;;16.00;99.90;;;;;;5069788;28;20115;-84
2022/10/24 05:30:42;;;;;;;6.60;1.50;;;16.00;99.90;;;;;;5070844;28;20128;-84
2022/10/24 05:33:07;;;;;;;8.68;2.00;;;16.00;99.90;;;;;;5053431;28;20098;-84
2022/10/24 05:35:33;;;;;;;7.32;1.85;;;16.00;99.90;;;;;;5070937;28;20036;-84
2022/10/24 05:37:59;;;;;;;9.88;2.28;;;16.00;99.90;;;;;;5070386;28;20036;-84
2022/10/24 05:40:24;;;;;;;8.30;2.05;;;16.00;99.90;;;;;;5070522;28;20033;-84
2022/10/24 05:42:51;;;;;;;7.55;1.80;;;16.00;99.90;;;;;;5054401;28;20047;-85
2022/10/24 05:45:17;;;;;;;6.93;1.90;;;15.90;99.90;;;;;;5070554;28;20145;-85
2022/10/24 05:47:42;;;;;;;4.50;1.40;;;15.90;99.90;;;;;;5053781;28;20413;-84
2022/10/24 05:50:09;;;;;;;6.80;1.40;;;15.90;99.90;;;;;;5054029;28;20032;-84
2022/10/24 05:52:35;;;;;;;9.45;2.33;;;15.80;99.90;;;;;;5069661;28;20081;-84
2022/10/24 05:55:03;;;;;;;10.63;2.20;;;15.90;99.90;;;;;;5070092;28;20055;-84
2022/10/24 05:57:29;;;;;;;8.02;2.47;;;15.90;99.90;;;;;;5070301;28;20121;-84
2022/10/24 05:59:54;;;;;;;7.65;2.05;;;15.90;99.90;;;;;;5070221;28;20639;-84
2022/10/24 06:02:20;;;;;;;7.00;1.60;;;15.90;99.90;;;;;;5069891;28;20040;-84
2022/10/24 06:04:47;;;;;;;8.60;2.03;;;15.90;99.90;;;;;;5070055;28;20040;-84
2022/10/24 06:07:13;;;;;;;10.00;2.20;;;15.80;99.90;;;;;;5053689;28;20044;-84
2022/10/24 06:09:40;;;;;;;5.53;1.55;;;15.90;99.90;;;;;;5069570;28;20043;-84
2022/10/24 06:12:07;;;;;;;5.93;1.60;;;15.80;99.90;;;;;;5070181;28;20041;-84
2022/10/24 06:14:33;;;;;;;9.77;2.28;;;15.70;99.90;;;;;;5069264;28;20044;-84
2022/10/24 06:16:58;;;;;;;8.45;2.08;;;15.80;99.90;;;;;;5070701;28;20047;-84
2022/10/24 06:19:24;;;;;;;9.65;2.20;;;15.80;99.90;;;;;;5070428;28;20040;-85
2022/10/24 06:21:50;;;;;;;11.98;2.22;;;15.80;99.90;;;;;;5069253;28;20067;-84
2022/10/24 06:24:15;;;;;;;6.47;1.50;;;15.80;99.90;;;;;;5070204;28;20437;-84
2022/10/24 06:26:41;;;;;;;3.58;1.40;;;15.80;99.90;;;;;;5069675;28;20040;-84
2022/10/24 06:29:06;;;;;;;9.38;2.35;;;15.80;99.90;;;;;;5052928;28;20040;-84
2022/10/24 06:31:34;;;;;;;8.40;2.30;;;15.90;99.90;;;;;;5069785;28;20036;-84
2022/10/24 06:34:00;;;;;;;9.85;2.20;;;15.90;99.90;;;;;;5069765;28;20032;-84
2022/10/24 06:36:25;;;;;;;6.65;1.55;;;15.90;99.90;;;;;;5070154;28;20393;-84
2022/10/24 06:38:53;;;;;;;9.48;2.00;;;15.90;99.90;;;;;;5069107;28;20501;-84
2022/10/24 06:41:18;;;;;;;10.13;1.83;;;15.90;99.90;;;;;;5053218;28;20513;-84
2022/10/24 06:43:45;;;;;;;10.07;1.90;;;15.90;99.90;;;;;;5069463;28;20044;-84
2022/10/24 06:46:14;;;;;;;5.03;1.23;;;15.90;99.90;;;;;;5052566;28;20032;-84
2022/10/24 06:48:39;;;;;;;6.95;1.75;;;15.90;99.90;;;;;;5052488;28;20130;-84
2022/10/24 06:51:05;;;;;;;11.18;2.10;;;15.90;99.90;;;;;;5069266;28;20158;-84
2022/10/24 06:53:31;;;;;;;8.02;2.20;;;15.80;99.90;;;;;;5053542;28;20537;-84
2022/10/24 06:56:05;;;;;;;9.45;2.40;;;15.90;99.90;;;;;;5069471;28;20044;-84
2022/10/24 06:58:32;;;;;;;6.00;1.25;;;16.00;99.90;;;;;;5069074;28;20673;-84
2022/10/24 07:00:58;;;;;;;7.63;1.90;;;16.00;99.90;;;;;;5052232;28;20044;-84
2022/10/24 07:03:23;;;;;;;6.90;1.40;;;16.00;99.90;;;;;;5068782;28;20047;-84
2022/10/24 07:05:49;;;;;;;9.75;2.30;;;16.00;99.90;;;;;;5052317;28;20045;-84
2022/10/24 07:08:14;;;;;;;6.43;1.80;;;16.00;99.90;;;;;;5069417;28;20048;-85
2022/10/24 07:10:40;;;;;;;9.88;1.77;;;16.00;99.90;;;;;;5068219;28;20041;-84
2022/10/24 07:13:05;;;;;;;8.25;2.10;;;16.00;99.90;;;;;;5069446;28;20051;-84
2022/10/24 07:15:31;;;;;;;8.75;1.83;;;16.00;99.90;;;;;;5069175;28;20036;-84
2022/10/24 07:17:57;;;;;;;10.18;2.20;;;16.00;99.90;;;;;;5052963;28;20042;-84
2022/10/24 07:20:22;;;;;;;9.02;2.10;;;16.00;99.90;;;;;;5052478;28;20516;-84
2022/10/24 07:22:48;;;;;;;5.93;1.58;;;16.10;99.90;;;;;;5068654;28;20033;-84
2022/10/24 07:25:13;;;;;;;9.00;2.65;;;16.00;99.90;;;;;;5052493;28;20555;-84
2022/10/24 07:27:39;;;;;;;9.77;2.00;;;16.00;99.90;;;;;;5067687;28;20060;-84
2022/10/24 07:30:06;;;;;;;9.82;2.20;;;16.10;99.90;;;;;;5068263;28;20045;-84
2022/10/24 07:32:33;;;;;;;10.38;2.58;;;16.10;99.90;;;;;;5051479;28;20087;-84
2022/10/24 07:34:58;;;;;;;9.52;2.13;;;16.10;99.90;;;;;;5069099;28;20444;-84
2022/10/24 07:37:24;;;;;;;8.65;2.17;;;16.20;99.90;;;;;;5069554;28;20468;-84
2022/10/24 07:39:50;;;;;;;9.20;2.22;;;16.20;99.90;;;;;;5068533;28;20055;-84
2022/10/24 07:42:17;;;;;;;7.00;2.00;;;16.30;99.90;;;;;;5068608;28;20040;-84
2022/10/24 07:44:43;;;;;;;9.15;2.15;;;16.30;99.90;;;;;;5068648;28;20091;-84
2022/10/24 07:47:10;;;;;;;9.68;1.80;;;16.40;99.90;;;;;;5065818;28;20678;-84
2022/10/24 07:49:35;;;;;;;6.55;1.58;;;16.40;99.90;;;;;;5071643;28;20433;-85
2022/10/24 07:52:01;;;;;;;10.65;2.65;;;16.40;99.90;;;;;;5071767;28;20044;-85
2022/10/24 07:54:27;;;;;;;10.70;1.80;;;16.40;99.90;;;;;;5072065;28;20040;-85
2022/10/24 07:56:53;;;;;;;7.97;1.40;;;16.40;99.90;;;;;;5072313;28;20104;-85
2022/10/24 07:59:19;;;;;;;11.93;2.53;;;16.40;99.90;;;;;;5071609;28;20553;-84
2022/10/24 08:01:44;;;;;;;10.00;2.10;;;16.40;99.90;;;;;;5071523;28;20413;-84
2022/10/24 08:04:10;;;;;;;11.30;2.80;;;16.50;99.90;;;;;;5055518;28;20052;-84
2022/10/24 08:06:36;;;;;;;10.27;2.20;;;16.50;99.90;;;;;;5071389;28;20131;-84
2022/10/24 08:09:02;;;;;;;11.20;2.25;;;16.60;99.90;;;;;;5071749;28;20122;-84
2022/10/24 08:11:31;;;;;;;9.52;1.88;;;16.60;99.90;;;;;;5071790;28;20028;-84
2022/10/24 08:13:57;;;;;;;9.68;2.33;;;16.60;99.90;;;;;;5071307;28;20047;-84
2022/10/24 08:16:24;;;;;;;12.07;2.50;;;16.60;99.90;;;;;;5055313;28;20036;-85
2022/10/24 08:18:51;;;;;;;10.27;2.08;;;16.60;99.90;;;;;;5054424;28;20485;-84
2022/10/24 08:21:19;;;;;;;8.75;2.08;;;16.60;99.90;;;;;;5071326;28;20040;-84
2022/10/24 08:23:46;;;;;;;11.68;2.25;;;16.60;99.90;;;;;;5071045;28;20043;-84
2022/10/24 08:26:15;;;;;;;9.07;2.05;;;16.60;99.90;;;;;;5071365;28;20072;-84
2022/10/24 08:28:42;;;;;;;10.85;2.55;;;16.70;99.90;;;;;;5071677;28;20044;-84
2022/10/24 08:31:11;;;;;;;10.48;2.28;;;16.70;99.90;;;;;;5070268;28;20080;-84
2022/10/24 08:33:37;;;;;;;13.70;2.25;;;16.70;99.90;;;;;;5055078;28;20076;-84
2022/10/24 08:36:06;;;;;;;11.25;2.30;;;16.70;99.90;;;;;;5054666;28;20083;-84
2022/10/24 08:38:31;;;;;;;9.95;2.13;;;16.80;99.90;;;;;;5071159;28;20075;-85
2022/10/24 08:40:58;;;;;;;12.15;2.50;;;16.80;99.90;;;;;;5071290;28;20079;-85
2022/10/24 08:43:25;;;;;;;9.45;2.08;;;17.00;99.90;;;;;;5071500;28;20044;-84
2022/10/24 08:45:57;;;;;;;9.23;1.73;;;17.00;99.90;;;;;;5071428;28;20036;-85
2022/10/24 08:48:29;;;;;;;10.57;2.30;;;17.10;99.90;;;;;;5068504;28;20071;-85
2022/10/24 08:51:10;;;;;;;4.45;1.10;;;17.00;99.90;;;;;;5068344;28;20542;-85
2022/10/24 08:53:36;;;;;;;10.32;2.15;;;17.00;99.90;;;;;;5066809;28;20162;-85
2022/10/24 08:56:03;;;;;;;10.93;2.42;;;17.00;99.90;;;;;;5051309;28;20634;-85
2022/10/24 08:58:39;;;;;;;9.00;2.10;;;17.10;99.90;;;;;;5068515;28;20127;-84
2022/10/24 09:01:13;;;;;;;11.50;2.50;;;17.20;99.90;;;;;;5065047;28;20048;-84
2022/10/24 09:03:45;;;;;;;9.85;2.50;;;17.20;99.90;;;;;;5070091;28;20056;-84
2022/10/24 09:06:16;;;;;;;11.77;2.47;;;17.20;99.90;;;;;;5050634;28;20528;-84
2022/10/24 09:09:11;;;;;;;11.40;2.23;;;17.30;99.90;;;;;;5069520;28;20062;-84
2022/10/24 09:11:58;;;;;;;10.55;2.50;;;17.30;99.90;;;;;;5041319;28;20055;-84
2022/10/24 09:14:31;;;;;;;10.93;1.92;;;17.30;99.90;;;;;;5069739;28;20068;-84
2022/10/24 09:17:17;;;;;;;14.50;2.50;;;17.30;99.90;;;;;;5053568;28;20098;-84
2022/10/24 09:20:02;;;;;;;9.73;2.22;;;17.30;99.90;;;;;;5069549;28;20036;-83
2022/10/24 09:22:33;;;;;;;9.38;2.38;;;17.30;99.90;;;;;;5068124;28;20047;-84
2022/10/24 09:25:05;;;;;;;9.02;1.90;;;17.40;99.90;;;;;;5069727;28;20044;-83
2022/10/24 09:27:39;;;;;;;5.90;1.63;;;17.50;99.90;;;;;;5067620;28;20086;-83
2022/10/24 09:30:13;;;;;;;10.23;2.30;;;17.50;99.90;;;;;;5067015;28;20040;-84
2022/10/24 09:32:40;;;;;;;10.23;2.00;;;17.40;99.90;;;;;;5069307;28;20036;-84
2022/10/24 09:35:14;;;;;;;10.68;2.10;;;17.50;99.90;;;;;;5068025;28;20032;-84
2022/10/24 09:37:42;;;;;;;10.65;2.20;;;17.50;99.90;;;;;;5052708;28;20047;-84
2022/10/24 09:40:13;;;;;;;12.07;2.15;;;17.50;99.90;;;;;;5067742;28;20126;-84
2022/10/24 09:42:46;;;;;;;12.02;2.47;;;17.50;99.90;;;;;;5069526;28;20537;-84
2022/10/24 09:45:20;;;;;;;9.25;2.10;;;17.50;99.90;;;;;;5051067;28;20048;-84
2022/10/24 09:47:53;;;;;;;8.73;2.30;;;17.50;99.90;;;;;;5050697;28;20060;-84
2022/10/24 09:50:20;;;;;;;11.65;2.40;;;17.50;99.90;;;;;;5052713;28;20039;-84
2022/10/24 09:52:51;;;;;;;9.63;2.40;;;17.50;99.90;;;;;;5053207;28;20080;-84
2022/10/24 09:55:23;;;;;;;10.77;2.58;;;17.50;99.90;;;;;;5069565;28;20086;-84
2022/10/24 09:57:55;;;;;;;11.13;2.00;;;17.50;99.90;;;;;;5053715;28;20090;-84
2022/10/24 10:00:30;;;;;;;5.43;0.90;;;17.40;99.90;;;;;;5069921;28;20032;-84
2022/10/24 10:03:06;;;;;;;10.68;2.15;;;17.30;99.90;;;;;;5051583;28;20115;-84
2022/10/24 10:06:03;;;;;;;9.80;2.00;;;17.30;99.90;;;;;;5070558;28;20044;-83
2022/10/24 10:08:32;;;;;;;8.95;2.00;;;17.30;99.90;;;;;;5057645;28;20440;-83
2022/10/24 10:11:07;;;;;;;12.30;2.33;;;17.30;99.90;;;;;;5052397;28;20040;-83
2022/10/24 10:13:48;;;;;;;11.27;1.88;;;17.30;99.90;;;;;;5069098;28;20060;-83
2022/10/24 10:16:32;;;;;;;11.05;2.22;;;17.30;99.90;;;;;;5068756;28;20041;-83
2022/10/24 10:19:11;;;;;;;8.88;2.00;;;17.20;99.90;;;;;;5068327;28;20040;-82
2022/10/24 10:21:59;;;;;;;8.68;1.90;;;17.20;99.90;;;;;;5070372;28;20082;-82
2022/10/24 10:24:44;;;;;;;11.57;1.80;;;17.00;99.90;;;;;;5070007;28;20250;-83
2022/10/24 10:27:34;;;;;;;10.63;1.88;;;16.70;99.90;;;;;;5069708;28;20418;-83
2022/10/24 10:30:12;;;;;;;8.10;1.40;;;16.60;99.90;;;;;;5070124;28;20047;-83
2022/10/24 10:32:59;;;;;;;7.97;1.55;;;16.40;99.90;;;;;;5062776;28;20064;-83
2022/10/24 10:36:06;;;;;;;9.60;2.30;;;16.30;99.90;;;;;;5069701;28;20083;-83
2022/10/24 10:38:52;;;;;;;9.77;2.53;;;16.30;99.90;;;;;;5069729;28;20086;-83
2022/10/24 10:41:24;;;;;;;12.35;2.30;;;16.10;99.90;;;;;;5069118;28;20124;-83
2022/10/24 10:44:03;;;;;;;;;;;16.10;99.90;;;;;;5061940;28;20076;-84
2022/10/24 10:46:46;;;;;;;6.13;1.20;;;16.10;99.90;;;;;;5070244;28;19939;-84
2022/10/24 10:49:30;;;;;;;8.93;2.13;;;16.10;99.90;;;;;;5069128;28;20501;-85
2022/10/24 10:52:16;;;;;;;8.32;1.98;;;16.40;99.90;;;;;;5069513;28;20082;-85
2022/10/24 10:54:48;;;;;;;9.23;2.10;;;16.60;99.90;;;;;;5050875;28;20048;-83
2022/10/24 10:57:40;;;;;;;5.63;1.17;;;16.80;99.90;;;;;;5069439;28;20076;-84
2022/10/24 11:00:11;;;;;;;9.23;1.27;;;16.90;99.90;;;;;;5051843;28;20102;-83
2022/10/24 11:02:56;;;;;;;9.20;2.33;;;17.00;99.90;;;;;;5068611;28;20124;-84
2022/10/24 11:05:52;;;;;;;7.97;1.88;;;17.20;99.90;;;;;;5069506;28;20498;-84
2022/10/24 11:08:28;;;;;;;9.77;2.15;;;17.40;99.90;;;;;;5068173;28;20397;-84
2022/10/24 11:11:03;;;;;;;7.38;1.50;;;17.50;99.90;;;;;;5068511;28;20032;-84
2022/10/24 11:13:35;;;;;;;8.35;1.73;;;17.60;99.90;;;;;;5044212;28;20055;-84
2022/10/24 11:16:03;;;;;;;;;;;17.60;99.90;;;;;;5069436;28;20731;-84
2022/10/24 11:18:37;;;;;;;9.43;1.85;;;17.60;99.90;;;;;;5068514;28;19916;-84
2022/10/24 11:21:07;;;;;;;10.02;1.83;;;17.60;99.90;;;;;;5051982;28;20049;-84
2022/10/24 11:23:48;;;;;;;7.47;1.60;;;17.70;99.90;;;;;;5070306;28;20540;-84
2022/10/24 11:26:32;;;;;;;7.63;1.65;;;17.80;99.90;;;;;;5072164;28;20044;-84
2022/10/24 11:29:13;;;;;;;7.68;1.70;;;17.70;99.90;;;;;;5071985;28;20124;-84
2022/10/24 11:31:45;;;;;;;9.02;1.80;;;17.80;99.90;;;;;;5054585;28;20502;-84
2022/10/24 11:34:20;;;;;;;9.20;1.77;;;17.90;99.90;;;;;;5056352;28;20119;-84
2022/10/24 11:37:01;;;;;;;9.38;1.73;;;18.00;99.90;;;;;;5055479;28;20375;-84
2022/10/24 11:39:51;;;;;;;9.00;1.95;;;18.10;99.90;;;;;;5072766;28;20135;-84
2022/10/24 11:42:17;;;;;;;9.60;1.80;;;18.00;99.90;;;;;;5055864;28;20557;-84
2022/10/24 11:44:54;;;;;;;8.00;1.75;;;18.20;99.90;;;;;;5055576;28;20120;-84
2022/10/24 11:47:22;;;;;;;8.65;1.60;;;18.40;99.90;;;;;;5072637;28;20044;-84
2022/10/24 11:49:57;;;;;;;8.27;1.45;;;18.30;99.90;;;;;;5055962;28;20040;-84
2022/10/24 11:52:31;;;;;;;7.45;1.63;;;18.30;99.90;;;;;;5071917;28;20040;-84
2022/10/24 11:55:21;;;;;;;9.65;1.95;;;18.20;99.90;;;;;;5072517;28;20048;-84
2022/10/24 11:57:58;;;;;;;9.02;1.88;;;18.10;99.90;;;;;;5073022;28;20486;-84
2022/10/24 12:00:29;;;;;;;8.07;1.63;;;17.90;99.90;;;;;;5072329;28;20048;-84
2022/10/24 12:03:34;;;;;;;9.00;1.70;;;17.80;99.90;;;;;;5072127;28;20119;-84
2022/10/24 12:06:12;;;;;;;8.23;2.17;;;17.80;99.90;;;;;;5049633;28;20060;-84
2022/10/24 12:08:56;;;;;;;10.50;2.00;;;17.70;99.90;;;;;;5054888;28;20569;-84
2022/10/24 12:11:42;;;;;;;6.72;1.73;;;17.60;99.90;;;;;;5052056;28;20449;-84
2022/10/24 12:14:39;;;;;;;7.90;1.60;;;17.60;99.90;;;;;;5052854;28;20045;-84
2022/10/24 12:17:35;;;;;;;7.97;1.58;;;17.50;99.90;;;;;;5054585;28;20410;-84
2022/10/24 12:20:04;;;;;;;6.72;1.48;;;17.50;99.90;;;;;;5054958;28;20071;-84
2022/10/24 12:22:36;;;;;;;6.45;1.48;;;17.50;99.90;;;;;;5054697;28;20051;-84
2022/10/24 12:25:37;;;;;;;;;;;17.40;99.90;;;;;;5072594;28;20044;-84
2022/10/24 12:28:07;;;;;;;9.75;2.03;;;17.40;99.90;;;;;;5013729;28;19921;-84
2022/10/24 12:30:35;;;;;;;4.93;1.50;;;17.40;99.90;;;;;;5044359;28;20095;-84
2022/10/24 12:33:25;;;;;;;8.40;1.60;;;17.40;99.90;;;;;;5068600;28;20068;-84
2022/10/24 12:35:55;;;;;;;8.50;1.88;;;17.40;99.90;;;;;;5054641;28;20040;-84
2022/10/24 12:38:26;;;;;;;5.28;1.30;;;17.30;99.90;;;;;;5070742;28;20490;-84
2022/10/24 12:40:56;;;;;;;7.10;1.60;;;17.30;99.90;;;;;;5071685;28;20402;-84
2022/10/24 12:43:37;;;;;;;9.00;1.83;;;17.30;99.90;;;;;;5054874;28;20041;-84
2022/10/24 12:46:14;;;;;;;6.78;1.50;;;17.30;99.90;;;;;;5071059;28;20520;-84
2022/10/24 12:48:44;;;;;;;7.03;1.40;;;17.30;99.90;;;;;;5071411;28;20045;-84
2022/10/24 12:51:38;;;;;;;7.13;1.15;;;17.30;99.90;;;;;;5054144;28;20044;-84
2022/10/24 12:54:15;;;;;;;7.53;1.50;;;17.30;99.90;;;;;;5053931;28;20047;-84
2022/10/24 12:56:50;;;;;;;5.15;1.40;;;17.60;99.90;;;;;;5066543;28;20036;-84
2022/10/24 12:59:27;;;;;;;8.57;1.75;;;17.70;99.90;;;;;;5070476;28;20046;-84
2022/10/24 13:02:14;;;;;;;8.18;1.80;;;17.80;99.90;;;;;;5069034;28;20051;-84
2022/10/24 13:04:49;;;;;;;6.75;1.50;;;17.80;99.90;;;;;;5054578;28;20041;-84
2022/10/24 13:07:17;;;;;;;7.45;1.33;;;17.70;99.90;;;;;;5070587;28;20048;-84